sensor_id;sensor_type;location;lat;lon;timestamp;P1;durP1;ratioP1;P2;durP2;ratioP2
53521;SDS011;39398;48.382;9.802;2022-07-01T00:00:21;2.10;;;1.80;;
53521;SDS011;39398;48.382;9.802;2022-07-01T00:01:23;2.10;;;1.80;;
53521;SDS011;39398;48.382;9.802;2022-07-01T00:02:24;1.95;;;1.75;;
53521;SDS011;39398;48.382;9.802;2022-07-01T00:03:26;4.85;;;2.30;;
53521;SDS011;39398;48.382;9.802;2022-07-01T00:04:27;3.72;;;2.08;;
53521;SDS011;39398;48.382;9.802;2022-07-01T00:05:29;2.38;;;1.80;;
53521;SDS011;39398;48.382;9.802;2022-07-01T00:06:31;2.35;;;1.50;;
53521;SDS011;39398;48.382;9.802;2022-07-01T00:07:34;3.28;;;1.88;;
53521;SDS011;39398;48.382;9.802;2022-07-01T00:08:35;2.65;;;1.92;;
53521;SDS011;39398;48.382;9.802;2022-07-01T00:09:37;2.42;;;1.90;;
53521;SDS011;39398;48.382;9.802;2022-07-01T00:10:39;2.83;;;1.98;;
53521;SDS011;39398;48.382;9.802;2022-07-01T00:11:41;2.70;;;2.20;;
53521;SDS011;39398;48.382;9.802;2022-07-01T00:12:43;2.67;;;2.10;;
53521;SDS011;39398;48.382;9.802;2022-07-01T00:13:44;2.00;;;1.65;;
53521;SDS011;39398;48.382;9.802;2022-07-01T00:14:46;3.42;;;1.90;;
53521;SDS011;39398;48.382;9.802;2022-07-01T00:15:47;2.10;;;1.90;;
53521;SDS011;39398;48.382;9.802;2022-07-01T00:16:49;3.97;;;2.20;;
53521;SDS011;39398;48.382;9.802;2022-07-01T00:17:51;2.00;;;1.45;;
53521;SDS011;39398;48.382;9.802;2022-07-01T00:18:52;2.47;;;2.20;;
53521;SDS011;39398;48.382;9.802;2022-07-01T00:19:54;4.07;;;1.90;;
53521;SDS011;39398;48.382;9.802;2022-07-01T00:20:55;3.40;;;1.95;;
53521;SDS011;39398;48.382;9.802;2022-07-01T00:21:57;3.08;;;2.28;;
53521;SDS011;39398;48.382;9.802;2022-07-01T00:23:00;2.88;;;2.10;;
53521;SDS011;39398;48.382;9.802;2022-07-01T00:24:01;3.75;;;1.85;;
53521;SDS011;39398;48.382;9.802;2022-07-01T00:25:03;2.47;;;1.92;;
53521;SDS011;39398;48.382;9.802;2022-07-01T00:26:06;1.65;;;1.55;;
53521;SDS011;39398;48.382;9.802;2022-07-01T00:27:07;4.75;;;2.38;;
53521;SDS011;39398;48.382;9.802;2022-07-01T00:28:09;2.28;;;2.08;;
53521;SDS011;39398;48.382;9.802;2022-07-01T00:29:10;3.85;;;2.10;;
53521;SDS011;39398;48.382;9.802;2022-07-01T00:30:12;2.33;;;1.80;;
53521;SDS011;39398;48.382;9.802;2022-07-01T00:31:14;2.17;;;1.90;;
53521;SDS011;39398;48.382;9.802;2022-07-01T00:32:16;3.17;;;1.45;;
53521;SDS011;39398;48.382;9.802;2022-07-01T00:33:18;2.85;;;2.10;;
53521;SDS011;39398;48.382;9.802;2022-07-01T00:34:20;1.90;;;1.60;;
53521;SDS011;39398;48.382;9.802;2022-07-01T00:35:21;2.30;;;2.05;;
53521;SDS011;39398;48.382;9.802;2022-07-01T00:36:23;2.20;;;1.77;;
53521;SDS011;39398;48.382;9.802;2022-07-01T00:37:30;1.42;;;1.30;;
53521;SDS011;39398;48.382;9.802;2022-07-01T00:38:33;2.75;;;2.00;;
53521;SDS011;39398;48.382;9.802;2022-07-01T00:39:35;3.58;;;2.00;;
53521;SDS011;39398;48.382;9.802;2022-07-01T00:40:37;3.45;;;1.95;;
53521;SDS011;39398;48.382;9.802;2022-07-01T00:41:38;1.90;;;1.75;;
53521;SDS011;39398;48.382;9.802;2022-07-01T00:42:40;3.67;;;2.33;;
53521;SDS011;39398;48.382;9.802;2022-07-01T00:43:41;3.95;;;2.20;;
53521;SDS011;39398;48.382;9.802;2022-07-01T00:44:55;1.60;;;1.50;;
53521;SDS011;39398;48.382;9.802;2022-07-01T00:45:57;3.03;;;2.10;;
53521;SDS011;39398;48.382;9.802;2022-07-01T00:46:59;2.03;;;1.90;;
53521;SDS011;39398;48.382;9.802;2022-07-01T00:48:03;2.17;;;1.73;;
53521;SDS011;39398;48.382;9.802;2022-07-01T00:49:05;7.75;;;2.50;;
53521;SDS011;39398;48.382;9.802;2022-07-01T00:50:07;4.28;;;2.00;;
53521;SDS011;39398;48.382;9.802;2022-07-01T00:51:10;4.72;;;2.35;;
53521;SDS011;39398;48.382;9.802;2022-07-01T00:52:12;3.35;;;2.30;;
53521;SDS011;39398;48.382;9.802;2022-07-01T00:53:13;3.28;;;2.38;;
53521;SDS011;39398;48.382;9.802;2022-07-01T00:54:17;3.17;;;2.63;;
53521;SDS011;39398;48.382;9.802;2022-07-01T00:55:19;2.90;;;2.60;;
53521;SDS011;39398;48.382;9.802;2022-07-01T00:56:21;4.68;;;2.30;;
53521;SDS011;39398;48.382;9.802;2022-07-01T00:57:22;3.78;;;2.50;;
53521;SDS011;39398;48.382;9.802;2022-07-01T00:58:25;2.38;;;2.17;;
53521;SDS011;39398;48.382;9.802;2022-07-01T00:59:27;4.15;;;2.50;;
53521;SDS011;39398;48.382;9.802;2022-07-01T01:00:28;3.90;;;2.55;;
53521;SDS011;39398;48.382;9.802;2022-07-01T01:01:30;3.85;;;2.28;;
53521;SDS011;39398;48.382;9.802;2022-07-01T01:02:32;1.92;;;1.70;;
53521;SDS011;39398;48.382;9.802;2022-07-01T01:03:33;3.05;;;2.13;;
53521;SDS011;39398;48.382;9.802;2022-07-01T01:04:35;2.28;;;2.05;;
53521;SDS011;39398;48.382;9.802;2022-07-01T01:05:37;2.95;;;1.77;;
53521;SDS011;39398;48.382;9.802;2022-07-01T01:06:40;3.03;;;1.45;;
53521;SDS011;39398;48.382;9.802;2022-07-01T01:07:42;1.40;;;1.30;;
53521;SDS011;39398;48.382;9.802;2022-07-01T01:08:43;1.75;;;1.63;;
53521;SDS011;39398;48.382;9.802;2022-07-01T01:09:48;2.58;;;1.50;;
53521;SDS011;39398;48.382;9.802;2022-07-01T01:10:49;2.72;;;1.77;;
53521;SDS011;39398;48.382;9.802;2022-07-01T01:11:51;3.42;;;1.70;;
53521;SDS011;39398;48.382;9.802;2022-07-01T01:12:53;3.13;;;1.63;;
53521;SDS011;39398;48.382;9.802;2022-07-01T01:13:56;2.05;;;1.40;;
53521;SDS011;39398;48.382;9.802;2022-07-01T01:14:58;2.75;;;1.35;;
53521;SDS011;39398;48.382;9.802;2022-07-01T01:15:59;2.67;;;1.63;;
53521;SDS011;39398;48.382;9.802;2022-07-01T01:17:01;0.80;;;0.80;;
53521;SDS011;39398;48.382;9.802;2022-07-01T01:18:03;1.33;;;1.23;;
53521;SDS011;39398;48.382;9.802;2022-07-01T01:19:05;1.27;;;1.17;;
53521;SDS011;39398;48.382;9.802;2022-07-01T01:20:07;0.50;;;0.50;;
53521;SDS011;39398;48.382;9.802;2022-07-01T01:21:10;1.00;;;1.00;;
53521;SDS011;39398;48.382;9.802;2022-07-01T01:22:14;0.95;;;0.70;;
53521;SDS011;39398;48.382;9.802;2022-07-01T01:23:17;0.50;;;0.50;;
53521;SDS011;39398;48.382;9.802;2022-07-01T01:24:18;0.80;;;0.80;;
53521;SDS011;39398;48.382;9.802;2022-07-01T01:25:21;3.15;;;1.10;;
53521;SDS011;39398;48.382;9.802;2022-07-01T01:26:22;1.20;;;0.98;;
53521;SDS011;39398;48.382;9.802;2022-07-01T01:27:24;1.20;;;1.10;;
53521;SDS011;39398;48.382;9.802;2022-07-01T01:28:25;2.08;;;1.38;;
53521;SDS011;39398;48.382;9.802;2022-07-01T01:29:27;2.58;;;1.15;;
53521;SDS011;39398;48.382;9.802;2022-07-01T01:30:29;1.40;;;1.30;;
53521;SDS011;39398;48.382;9.802;2022-07-01T01:31:31;2.63;;;1.45;;
53521;SDS011;39398;48.382;9.802;2022-07-01T01:32:33;1.98;;;1.30;;
53521;SDS011;39398;48.382;9.802;2022-07-01T01:33:35;2.95;;;1.60;;
53521;SDS011;39398;48.382;9.802;2022-07-01T01:34:37;3.75;;;1.67;;
53521;SDS011;39398;48.382;9.802;2022-07-01T01:35:40;3.03;;;1.63;;
53521;SDS011;39398;48.382;9.802;2022-07-01T01:36:43;1.23;;;1.10;;
53521;SDS011;39398;48.382;9.802;2022-07-01T01:37:44;1.45;;;0.90;;
53521;SDS011;39398;48.382;9.802;2022-07-01T01:38:46;1.45;;;0.90;;
53521;SDS011;39398;48.382;9.802;2022-07-01T01:39:47;1.08;;;0.80;;
53521;SDS011;39398;48.382;9.802;2022-07-01T01:40:49;0.85;;;0.80;;
53521;SDS011;39398;48.382;9.802;2022-07-01T01:41:50;1.58;;;0.77;;
53521;SDS011;39398;48.382;9.802;2022-07-01T01:42:52;0.93;;;0.82;;
53521;SDS011;39398;48.382;9.802;2022-07-01T01:43:54;1.58;;;0.80;;
53521;SDS011;39398;48.382;9.802;2022-07-01T01:44:55;0.90;;;0.90;;
53521;SDS011;39398;48.382;9.802;2022-07-01T01:45:57;1.33;;;0.88;;
53521;SDS011;39398;48.382;9.802;2022-07-01T01:46:58;0.70;;;0.70;;
53521;SDS011;39398;48.382;9.802;2022-07-01T01:48:00;0.90;;;0.80;;
53521;SDS011;39398;48.382;9.802;2022-07-01T01:49:02;1.60;;;0.88;;
53521;SDS011;39398;48.382;9.802;2022-07-01T01:50:04;0.90;;;0.90;;
53521;SDS011;39398;48.382;9.802;2022-07-01T01:51:06;1.13;;;0.70;;
53521;SDS011;39398;48.382;9.802;2022-07-01T01:52:09;1.88;;;0.90;;
53521;SDS011;39398;48.382;9.802;2022-07-01T01:53:10;1.00;;;0.90;;
53521;SDS011;39398;48.382;9.802;2022-07-01T01:54:12;1.67;;;1.00;;
53521;SDS011;39398;48.382;9.802;2022-07-01T01:55:13;1.00;;;0.95;;
53521;SDS011;39398;48.382;9.802;2022-07-01T01:56:15;2.28;;;0.80;;
53521;SDS011;39398;48.382;9.802;2022-07-01T01:57:17;0.93;;;0.70;;
53521;SDS011;39398;48.382;9.802;2022-07-01T01:58:19;1.35;;;0.82;;
53521;SDS011;39398;48.382;9.802;2022-07-01T01:59:20;1.55;;;0.90;;
53521;SDS011;39398;48.382;9.802;2022-07-01T02:00:22;0.93;;;0.80;;
53521;SDS011;39398;48.382;9.802;2022-07-01T02:01:23;0.85;;;0.80;;
53521;SDS011;39398;48.382;9.802;2022-07-01T02:02:25;2.80;;;0.65;;
53521;SDS011;39398;48.382;9.802;2022-07-01T02:03:26;0.70;;;0.65;;
53521;SDS011;39398;48.382;9.802;2022-07-01T02:04:28;2.38;;;0.80;;
53521;SDS011;39398;48.382;9.802;2022-07-01T02:05:30;1.88;;;0.80;;
53521;SDS011;39398;48.382;9.802;2022-07-01T02:06:32;1.60;;;0.85;;
53521;SDS011;39398;48.382;9.802;2022-07-01T02:07:35;1.25;;;0.82;;
53521;SDS011;39398;48.382;9.802;2022-07-01T02:08:37;1.30;;;0.77;;
53521;SDS011;39398;48.382;9.802;2022-07-01T02:09:39;4.32;;;0.73;;
53521;SDS011;39398;48.382;9.802;2022-07-01T02:10:41;0.95;;;0.80;;
53521;SDS011;39398;48.382;9.802;2022-07-01T02:11:42;1.48;;;0.70;;
53521;SDS011;39398;48.382;9.802;2022-07-01T02:12:44;0.80;;;0.80;;
53521;SDS011;39398;48.382;9.802;2022-07-01T02:13:45;2.70;;;0.65;;
53521;SDS011;39398;48.382;9.802;2022-07-01T02:14:47;1.20;;;0.60;;
53521;SDS011;39398;48.382;9.802;2022-07-01T02:15:48;0.65;;;0.65;;
53521;SDS011;39398;48.382;9.802;2022-07-01T02:16:50;0.50;;;0.50;;
53521;SDS011;39398;48.382;9.802;2022-07-01T02:17:51;1.02;;;0.60;;
53521;SDS011;39398;48.382;9.802;2022-07-01T02:18:53;0.57;;;0.57;;
53521;SDS011;39398;48.382;9.802;2022-07-01T02:19:54;0.85;;;0.60;;
53521;SDS011;39398;48.382;9.802;2022-07-01T02:20:56;0.30;;;0.30;;
53521;SDS011;39398;48.382;9.802;2022-07-01T02:21:58;0.52;;;0.30;;
53521;SDS011;39398;48.382;9.802;2022-07-01T02:23:00;1.13;;;0.68;;
53521;SDS011;39398;48.382;9.802;2022-07-01T02:24:02;0.60;;;0.60;;
53521;SDS011;39398;48.382;9.802;2022-07-01T02:25:04;0.65;;;0.50;;
53521;SDS011;39398;48.382;9.802;2022-07-01T02:26:06;0.40;;;0.40;;
53521;SDS011;39398;48.382;9.802;2022-07-01T02:27:08;0.50;;;0.43;;
53521;SDS011;39398;48.382;9.802;2022-07-01T02:28:09;0.50;;;0.45;;
53521;SDS011;39398;48.382;9.802;2022-07-01T02:29:11;0.90;;;0.50;;
53521;SDS011;39398;48.382;9.802;2022-07-01T02:30:13;0.63;;;0.60;;
53521;SDS011;39398;48.382;9.802;2022-07-01T02:31:14;0.50;;;0.50;;
53521;SDS011;39398;48.382;9.802;2022-07-01T02:32:17;0.73;;;0.70;;
53521;SDS011;39398;48.382;9.802;2022-07-01T02:33:18;0.82;;;0.80;;
53521;SDS011;39398;48.382;9.802;2022-07-01T02:34:20;0.50;;;0.50;;
53521;SDS011;39398;48.382;9.802;2022-07-01T02:35:22;0.70;;;0.70;;
53521;SDS011;39398;48.382;9.802;2022-07-01T02:36:24;0.70;;;0.60;;
53521;SDS011;39398;48.382;9.802;2022-07-01T02:37:25;1.40;;;0.63;;
53521;SDS011;39398;48.382;9.802;2022-07-01T02:38:28;1.55;;;0.80;;
53521;SDS011;39398;48.382;9.802;2022-07-01T02:39:30;0.80;;;0.80;;
53521;SDS011;39398;48.382;9.802;2022-07-01T02:40:33;0.65;;;0.65;;
53521;SDS011;39398;48.382;9.802;2022-07-01T02:41:35;2.15;;;0.80;;
53521;SDS011;39398;48.382;9.802;2022-07-01T02:42:37;0.68;;;0.68;;
53521;SDS011;39398;48.382;9.802;2022-07-01T02:43:38;0.50;;;0.47;;
53521;SDS011;39398;48.382;9.802;2022-07-01T02:44:40;0.52;;;0.45;;
53521;SDS011;39398;48.382;9.802;2022-07-01T02:45:41;0.70;;;0.70;;
53521;SDS011;39398;48.382;9.802;2022-07-01T02:46:43;1.17;;;0.88;;
53521;SDS011;39398;48.382;9.802;2022-07-01T02:47:51;0.77;;;0.77;;
53521;SDS011;39398;48.382;9.802;2022-07-01T02:48:53;0.70;;;0.70;;
53521;SDS011;39398;48.382;9.802;2022-07-01T02:49:55;0.70;;;0.70;;
53521;SDS011;39398;48.382;9.802;2022-07-01T02:50:57;0.80;;;0.80;;
53521;SDS011;39398;48.382;9.802;2022-07-01T02:51:58;1.20;;;1.05;;
53521;SDS011;39398;48.382;9.802;2022-07-01T02:53:00;1.10;;;1.00;;
53521;SDS011;39398;48.382;9.802;2022-07-01T02:54:03;0.90;;;0.90;;
53521;SDS011;39398;48.382;9.802;2022-07-01T02:55:05;1.27;;;1.17;;
53521;SDS011;39398;48.382;9.802;2022-07-01T02:56:08;1.13;;;1.05;;
53521;SDS011;39398;48.382;9.802;2022-07-01T02:57:10;2.88;;;1.10;;
53521;SDS011;39398;48.382;9.802;2022-07-01T02:58:12;1.20;;;0.90;;
53521;SDS011;39398;48.382;9.802;2022-07-01T02:59:13;0.73;;;0.73;;
53521;SDS011;39398;48.382;9.802;2022-07-01T03:00:15;0.50;;;0.50;;
53521;SDS011;39398;48.382;9.802;2022-07-01T03:01:17;0.63;;;0.60;;
53521;SDS011;39398;48.382;9.802;2022-07-01T03:02:18;0.80;;;0.80;;
53521;SDS011;39398;48.382;9.802;2022-07-01T03:03:21;0.90;;;0.90;;
53521;SDS011;39398;48.382;9.802;2022-07-01T03:04:22;0.55;;;0.55;;
53521;SDS011;39398;48.382;9.802;2022-07-01T03:05:24;0.77;;;0.55;;
53521;SDS011;39398;48.382;9.802;2022-07-01T03:06:26;0.60;;;0.60;;
53521;SDS011;39398;48.382;9.802;2022-07-01T03:07:28;1.10;;;0.75;;
53521;SDS011;39398;48.382;9.802;2022-07-01T03:08:29;0.30;;;0.30;;
53521;SDS011;39398;48.382;9.802;2022-07-01T03:09:32;0.50;;;0.50;;
53521;SDS011;39398;48.382;9.802;2022-07-01T03:10:33;4.78;;;0.90;;
53521;SDS011;39398;48.382;9.802;2022-07-01T03:11:35;7.47;;;1.20;;
53521;SDS011;39398;48.382;9.802;2022-07-01T03:12:37;2.65;;;0.98;;
53521;SDS011;39398;48.382;9.802;2022-07-01T03:13:38;0.57;;;0.57;;
53521;SDS011;39398;48.382;9.802;2022-07-01T03:14:40;0.73;;;0.73;;
53521;SDS011;39398;48.382;9.802;2022-07-01T03:15:42;0.68;;;0.68;;
53521;SDS011;39398;48.382;9.802;2022-07-01T03:16:43;0.80;;;0.80;;
53521;SDS011;39398;48.382;9.802;2022-07-01T03:17:45;0.70;;;0.68;;
53521;SDS011;39398;48.382;9.802;2022-07-01T03:18:47;0.70;;;0.70;;
53521;SDS011;39398;48.382;9.802;2022-07-01T03:19:49;6.45;;;2.30;;
53521;SDS011;39398;48.382;9.802;2022-07-01T03:20:51;0.70;;;0.70;;
53521;SDS011;39398;48.382;9.802;2022-07-01T03:21:53;1.50;;;1.00;;
53521;SDS011;39398;48.382;9.802;2022-07-01T03:22:54;5.10;;;1.17;;
53521;SDS011;39398;48.382;9.802;2022-07-01T03:23:56;1.27;;;1.17;;
53521;SDS011;39398;48.382;9.802;2022-07-01T03:24:59;0.80;;;0.80;;
53521;SDS011;39398;48.382;9.802;2022-07-01T03:26:00;0.43;;;0.43;;
53521;SDS011;39398;48.382;9.802;2022-07-01T03:27:02;3.00;;;1.00;;
53521;SDS011;39398;48.382;9.802;2022-07-01T03:28:04;1.42;;;0.93;;
53521;SDS011;39398;48.382;9.802;2022-07-01T03:29:05;1.10;;;1.00;;
53521;SDS011;39398;48.382;9.802;2022-07-01T03:30:07;1.58;;;0.80;;
53521;SDS011;39398;48.382;9.802;2022-07-01T03:31:09;2.40;;;0.93;;
53521;SDS011;39398;48.382;9.802;2022-07-01T03:32:11;0.57;;;0.57;;
53521;SDS011;39398;48.382;9.802;2022-07-01T03:33:13;1.00;;;1.00;;
53521;SDS011;39398;48.382;9.802;2022-07-01T03:34:14;0.80;;;0.80;;
53521;SDS011;39398;48.382;9.802;2022-07-01T03:35:16;0.95;;;0.60;;
53521;SDS011;39398;48.382;9.802;2022-07-01T03:36:18;0.75;;;0.50;;
53521;SDS011;39398;48.382;9.802;2022-07-01T03:37:20;0.60;;;0.60;;
53521;SDS011;39398;48.382;9.802;2022-07-01T03:38:22;1.70;;;0.77;;
53521;SDS011;39398;48.382;9.802;2022-07-01T03:39:23;1.50;;;0.88;;
53521;SDS011;39398;48.382;9.802;2022-07-01T03:40:26;2.20;;;0.70;;
53521;SDS011;39398;48.382;9.802;2022-07-01T03:41:28;0.35;;;0.35;;
53521;SDS011;39398;48.382;9.802;2022-07-01T03:42:30;0.60;;;0.60;;
53521;SDS011;39398;48.382;9.802;2022-07-01T03:43:31;4.47;;;0.60;;
53521;SDS011;39398;48.382;9.802;2022-07-01T03:44:33;1.25;;;0.57;;
53521;SDS011;39398;48.382;9.802;2022-07-01T03:45:35;2.30;;;0.73;;
53521;SDS011;39398;48.382;9.802;2022-07-01T03:46:37;4.25;;;0.75;;
53521;SDS011;39398;48.382;9.802;2022-07-01T03:47:44;0.60;;;0.60;;
53521;SDS011;39398;48.382;9.802;2022-07-01T03:48:46;1.08;;;0.57;;
53521;SDS011;39398;48.382;9.802;2022-07-01T03:49:47;1.08;;;0.63;;
53521;SDS011;39398;48.382;9.802;2022-07-01T03:50:49;0.65;;;0.60;;
53521;SDS011;39398;48.382;9.802;2022-07-01T03:51:50;0.50;;;0.50;;
53521;SDS011;39398;48.382;9.802;2022-07-01T03:52:52;1.40;;;0.60;;
53521;SDS011;39398;48.382;9.802;2022-07-01T03:53:54;2.05;;;1.00;;
53521;SDS011;39398;48.382;9.802;2022-07-01T03:54:55;1.15;;;0.85;;
53521;SDS011;39398;48.382;9.802;2022-07-01T03:55:58;1.80;;;1.02;;
53521;SDS011;39398;48.382;9.802;2022-07-01T03:57:00;0.98;;;0.80;;
53521;SDS011;39398;48.382;9.802;2022-07-01T03:58:03;0.70;;;0.70;;
53521;SDS011;39398;48.382;9.802;2022-07-01T03:59:05;1.20;;;0.90;;
53521;SDS011;39398;48.382;9.802;2022-07-01T04:00:07;1.50;;;1.00;;
53521;SDS011;39398;48.382;9.802;2022-07-01T04:01:09;1.00;;;0.90;;
53521;SDS011;39398;48.382;9.802;2022-07-01T04:02:11;1.20;;;1.10;;
53521;SDS011;39398;48.382;9.802;2022-07-01T04:03:14;1.00;;;1.00;;
53521;SDS011;39398;48.382;9.802;2022-07-01T04:04:15;2.10;;;0.98;;
53521;SDS011;39398;48.382;9.802;2022-07-01T04:05:17;1.00;;;0.90;;
53521;SDS011;39398;48.382;9.802;2022-07-01T04:06:18;2.13;;;1.17;;
53521;SDS011;39398;48.382;9.802;2022-07-01T04:07:20;1.05;;;1.00;;
53521;SDS011;39398;48.382;9.802;2022-07-01T04:08:23;2.83;;;1.40;;
53521;SDS011;39398;48.382;9.802;2022-07-01T04:09:24;4.13;;;1.20;;
53521;SDS011;39398;48.382;9.802;2022-07-01T04:10:26;1.63;;;1.52;;
53521;SDS011;39398;48.382;9.802;2022-07-01T04:11:29;1.55;;;1.45;;
53521;SDS011;39398;48.382;9.802;2022-07-01T04:12:32;1.70;;;1.60;;
53521;SDS011;39398;48.382;9.802;2022-07-01T04:13:34;2.22;;;2.03;;
53521;SDS011;39398;48.382;9.802;2022-07-01T04:14:35;2.25;;;1.75;;
53521;SDS011;39398;48.382;9.802;2022-07-01T04:15:38;2.95;;;2.08;;
53521;SDS011;39398;48.382;9.802;2022-07-01T04:16:39;3.00;;;2.38;;
53521;SDS011;39398;48.382;9.802;2022-07-01T04:17:41;2.10;;;1.90;;
53521;SDS011;39398;48.382;9.802;2022-07-01T04:18:43;1.77;;;1.67;;
53521;SDS011;39398;48.382;9.802;2022-07-01T04:19:45;2.47;;;2.17;;
53521;SDS011;39398;48.382;9.802;2022-07-01T04:20:46;5.32;;;2.10;;
53521;SDS011;39398;48.382;9.802;2022-07-01T04:21:48;2.83;;;1.70;;
53521;SDS011;39398;48.382;9.802;2022-07-01T04:22:50;2.80;;;2.10;;
53521;SDS011;39398;48.382;9.802;2022-07-01T04:23:51;2.50;;;2.30;;
53521;SDS011;39398;48.382;9.802;2022-07-01T04:24:53;2.45;;;2.22;;
53521;SDS011;39398;48.382;9.802;2022-07-01T04:25:54;2.92;;;2.03;;
53521;SDS011;39398;48.382;9.802;2022-07-01T04:26:57;4.97;;;2.53;;
53521;SDS011;39398;48.382;9.802;2022-07-01T04:27:59;3.92;;;1.60;;
53521;SDS011;39398;48.382;9.802;2022-07-01T04:29:01;3.35;;;2.10;;
53521;SDS011;39398;48.382;9.802;2022-07-01T04:30:03;2.63;;;1.98;;
53521;SDS011;39398;48.382;9.802;2022-07-01T04:31:04;2.55;;;1.83;;
53521;SDS011;39398;48.382;9.802;2022-07-01T04:32:06;2.67;;;2.05;;
53521;SDS011;39398;48.382;9.802;2022-07-01T04:33:08;2.72;;;1.52;;
53521;SDS011;39398;48.382;9.802;2022-07-01T04:34:09;3.97;;;2.58;;
53521;SDS011;39398;48.382;9.802;2022-07-01T04:35:11;3.88;;;2.20;;
53521;SDS011;39398;48.382;9.802;2022-07-01T04:36:12;5.68;;;2.38;;
53521;SDS011;39398;48.382;9.802;2022-07-01T04:37:14;3.90;;;1.77;;
53521;SDS011;39398;48.382;9.802;2022-07-01T04:38:16;4.55;;;2.17;;
53521;SDS011;39398;48.382;9.802;2022-07-01T04:39:17;3.53;;;1.70;;
53521;SDS011;39398;48.382;9.802;2022-07-01T04:40:19;2.20;;;1.90;;
53521;SDS011;39398;48.382;9.802;2022-07-01T04:41:20;1.80;;;1.50;;
53521;SDS011;39398;48.382;9.802;2022-07-01T04:42:23;1.85;;;1.27;;
53521;SDS011;39398;48.382;9.802;2022-07-01T04:43:24;2.78;;;1.83;;
53521;SDS011;39398;48.382;9.802;2022-07-01T04:44:27;1.95;;;1.10;;
53521;SDS011;39398;48.382;9.802;2022-07-01T04:45:29;2.03;;;1.70;;
53521;SDS011;39398;48.382;9.802;2022-07-01T04:46:31;3.95;;;2.05;;
53521;SDS011;39398;48.382;9.802;2022-07-01T04:47:32;3.58;;;2.22;;
53521;SDS011;39398;48.382;9.802;2022-07-01T04:48:34;1.90;;;1.80;;
53521;SDS011;39398;48.382;9.802;2022-07-01T04:49:35;5.90;;;2.28;;
53521;SDS011;39398;48.382;9.802;2022-07-01T04:50:37;4.05;;;2.35;;
53521;SDS011;39398;48.382;9.802;2022-07-01T04:51:38;6.45;;;2.10;;
53521;SDS011;39398;48.382;9.802;2022-07-01T04:52:40;3.13;;;2.70;;
53521;SDS011;39398;48.382;9.802;2022-07-01T04:53:42;5.32;;;2.70;;
53521;SDS011;39398;48.382;9.802;2022-07-01T04:54:43;3.90;;;2.70;;
53521;SDS011;39398;48.382;9.802;2022-07-01T04:55:45;1.92;;;1.52;;
53521;SDS011;39398;48.382;9.802;2022-07-01T04:56:46;2.00;;;1.50;;
53521;SDS011;39398;48.382;9.802;2022-07-01T04:57:49;3.50;;;2.50;;
53521;SDS011;39398;48.382;9.802;2022-07-01T04:58:51;3.83;;;3.20;;
53521;SDS011;39398;48.382;9.802;2022-07-01T04:59:52;2.58;;;2.35;;
53521;SDS011;39398;48.382;9.802;2022-07-01T05:00:54;3.33;;;3.03;;
53521;SDS011;39398;48.382;9.802;2022-07-01T05:01:55;4.45;;;2.95;;
53521;SDS011;39398;48.382;9.802;2022-07-01T05:02:57;4.95;;;2.60;;
53521;SDS011;39398;48.382;9.802;2022-07-01T05:03:59;3.83;;;3.38;;
53521;SDS011;39398;48.382;9.802;2022-07-01T05:05:00;4.95;;;4.15;;
53521;SDS011;39398;48.382;9.802;2022-07-01T05:06:02;2.22;;;2.00;;
53521;SDS011;39398;48.382;9.802;2022-07-01T05:07:04;4.75;;;3.47;;
53521;SDS011;39398;48.382;9.802;2022-07-01T05:08:05;3.03;;;2.72;;
53521;SDS011;39398;48.382;9.802;2022-07-01T05:09:07;4.28;;;3.40;;
53521;SDS011;39398;48.382;9.802;2022-07-01T05:10:09;5.95;;;3.60;;
53521;SDS011;39398;48.382;9.802;2022-07-01T05:11:10;2.58;;;2.25;;
53521;SDS011;39398;48.382;9.802;2022-07-01T05:12:12;5.70;;;3.38;;
53521;SDS011;39398;48.382;9.802;2022-07-01T05:13:15;3.17;;;2.88;;
53521;SDS011;39398;48.382;9.802;2022-07-01T05:14:16;2.63;;;2.20;;
53521;SDS011;39398;48.382;9.802;2022-07-01T05:15:18;3.35;;;2.85;;
53521;SDS011;39398;48.382;9.802;2022-07-01T05:16:19;4.35;;;3.10;;
53521;SDS011;39398;48.382;9.802;2022-07-01T05:17:21;4.82;;;2.63;;
53521;SDS011;39398;48.382;9.802;2022-07-01T05:18:22;5.85;;;3.10;;
53521;SDS011;39398;48.382;9.802;2022-07-01T05:19:24;2.20;;;2.00;;
53521;SDS011;39398;48.382;9.802;2022-07-01T05:20:25;3.55;;;3.08;;
53521;SDS011;39398;48.382;9.802;2022-07-01T05:21:27;6.65;;;2.95;;
53521;SDS011;39398;48.382;9.802;2022-07-01T05:22:29;2.28;;;2.08;;
53521;SDS011;39398;48.382;9.802;2022-07-01T05:23:30;2.75;;;2.38;;
53521;SDS011;39398;48.382;9.802;2022-07-01T05:24:32;3.22;;;2.10;;
53521;SDS011;39398;48.382;9.802;2022-07-01T05:25:33;2.95;;;2.40;;
53521;SDS011;39398;48.382;9.802;2022-07-01T05:26:35;3.15;;;2.00;;
53521;SDS011;39398;48.382;9.802;2022-07-01T05:27:37;2.13;;;1.85;;
53521;SDS011;39398;48.382;9.802;2022-07-01T05:28:39;1.80;;;1.65;;
53521;SDS011;39398;48.382;9.802;2022-07-01T05:29:48;2.58;;;2.00;;
53521;SDS011;39398;48.382;9.802;2022-07-01T05:30:49;2.10;;;2.00;;
53521;SDS011;39398;48.382;9.802;2022-07-01T05:31:51;2.75;;;2.00;;
53521;SDS011;39398;48.382;9.802;2022-07-01T05:32:52;1.65;;;1.55;;
53521;SDS011;39398;48.382;9.802;2022-07-01T05:33:54;1.98;;;1.88;;
53521;SDS011;39398;48.382;9.802;2022-07-01T05:34:55;1.92;;;1.75;;
53521;SDS011;39398;48.382;9.802;2022-07-01T05:35:57;2.40;;;2.20;;
53521;SDS011;39398;48.382;9.802;2022-07-01T05:36:58;3.17;;;2.50;;
53521;SDS011;39398;48.382;9.802;2022-07-01T05:38:00;2.22;;;1.38;;
53521;SDS011;39398;48.382;9.802;2022-07-01T05:39:02;2.30;;;1.60;;
53521;SDS011;39398;48.382;9.802;2022-07-01T05:40:04;1.40;;;1.30;;
53521;SDS011;39398;48.382;9.802;2022-07-01T05:41:06;2.85;;;2.58;;
53521;SDS011;39398;48.382;9.802;2022-07-01T05:42:08;2.65;;;2.05;;
53521;SDS011;39398;48.382;9.802;2022-07-01T05:43:09;3.90;;;3.20;;
53521;SDS011;39398;48.382;9.802;2022-07-01T05:44:12;5.53;;;3.65;;
53521;SDS011;39398;48.382;9.802;2022-07-01T05:45:14;5.35;;;3.35;;
53521;SDS011;39398;48.382;9.802;2022-07-01T05:46:15;3.33;;;2.85;;
53521;SDS011;39398;48.382;9.802;2022-07-01T05:47:17;3.45;;;2.67;;
53521;SDS011;39398;48.382;9.802;2022-07-01T05:48:18;4.82;;;2.78;;
53521;SDS011;39398;48.382;9.802;2022-07-01T05:49:20;3.00;;;2.63;;
53521;SDS011;39398;48.382;9.802;2022-07-01T05:50:22;4.13;;;2.90;;
53521;SDS011;39398;48.382;9.802;2022-07-01T05:51:23;4.65;;;3.25;;
53521;SDS011;39398;48.382;9.802;2022-07-01T05:52:25;4.13;;;3.33;;
53521;SDS011;39398;48.382;9.802;2022-07-01T05:53:26;3.70;;;2.63;;
53521;SDS011;39398;48.382;9.802;2022-07-01T05:54:28;4.47;;;3.50;;
53521;SDS011;39398;48.382;9.802;2022-07-01T05:55:29;6.63;;;3.50;;
53521;SDS011;39398;48.382;9.802;2022-07-01T05:56:31;4.75;;;4.05;;
53521;SDS011;39398;48.382;9.802;2022-07-01T05:57:32;5.03;;;3.53;;
53521;SDS011;39398;48.382;9.802;2022-07-01T05:58:34;6.60;;;3.58;;
53521;SDS011;39398;48.382;9.802;2022-07-01T05:59:37;5.38;;;2.40;;
53521;SDS011;39398;48.382;9.802;2022-07-01T06:00:38;2.30;;;1.45;;
53521;SDS011;39398;48.382;9.802;2022-07-01T06:01:41;2.70;;;1.40;;
53521;SDS011;39398;48.382;9.802;2022-07-01T06:02:42;3.03;;;1.27;;
53521;SDS011;39398;48.382;9.802;2022-07-01T06:03:44;2.20;;;1.10;;
53521;SDS011;39398;48.382;9.802;2022-07-01T06:04:46;1.42;;;1.10;;
53521;SDS011;39398;48.382;9.802;2022-07-01T06:05:47;1.40;;;0.80;;
53521;SDS011;39398;48.382;9.802;2022-07-01T06:06:49;1.02;;;0.93;;
53521;SDS011;39398;48.382;9.802;2022-07-01T06:07:50;1.33;;;1.10;;
53521;SDS011;39398;48.382;9.802;2022-07-01T06:08:52;1.48;;;0.82;;
53521;SDS011;39398;48.382;9.802;2022-07-01T06:09:54;1.17;;;1.08;;
53521;SDS011;39398;48.382;9.802;2022-07-01T06:10:56;3.22;;;1.02;;
53521;SDS011;39398;48.382;9.802;2022-07-01T06:11:57;1.35;;;1.20;;
53521;SDS011;39398;48.382;9.802;2022-07-01T06:12:59;1.25;;;1.13;;